sensor_id;sensor_type;location;lat;lon;timestamp;P1;durP1;ratioP1;P2;durP2;ratioP2
6529;SDS011;3298;42.688;23.366;2023-02-28T00:01:30;14.53;;;11.47;;
6529;SDS011;3298;42.688;23.366;2023-02-28T00:03:57;14.67;;;9.77;;
6529;SDS011;3298;42.688;23.366;2023-02-28T00:06:24;16.03;;;10.97;;
6529;SDS011;3298;42.688;23.366;2023-02-28T00:08:51;13.70;;;10.60;;
6529;SDS011;3298;42.688;23.366;2023-02-28T00:11:18;14.97;;;10.73;;
6529;SDS011;3298;42.688;23.366;2023-02-28T00:13:46;12.20;;;9.57;;
6529;SDS011;3298;42.688;23.366;2023-02-28T00:16:14;13.43;;;11.30;;
6529;SDS011;3298;42.688;23.366;2023-02-28T00:18:43;13.73;;;11.23;;
6529;SDS011;3298;42.688;23.366;2023-02-28T00:21:12;13.87;;;10.33;;
6529;SDS011;3298;42.688;23.366;2023-02-28T00:23:39;13.53;;;10.60;;
6529;SDS011;3298;42.688;23.366;2023-02-28T00:26:06;10.33;;;9.33;;
6529;SDS011;3298;42.688;23.366;2023-02-28T00:28:33;12.07;;;9.50;;
6529;SDS011;3298;42.688;23.366;2023-02-28T00:30:59;15.70;;;11.53;;
6529;SDS011;3298;42.688;23.366;2023-02-28T00:33:26;18.80;;;12.03;;
6529;SDS011;3298;42.688;23.366;2023-02-28T00:36:02;20.83;;;14.00;;
6529;SDS011;3298;42.688;23.366;2023-02-28T00:38:32;16.30;;;12.77;;
6529;SDS011;3298;42.688;23.366;2023-02-28T00:40:59;15.80;;;12.47;;
6529;SDS011;3298;42.688;23.366;2023-02-28T00:43:29;19.80;;;13.03;;
6529;SDS011;3298;42.688;23.366;2023-02-28T00:45:57;18.63;;;13.37;;
6529;SDS011;3298;42.688;23.366;2023-02-28T00:48:24;18.33;;;13.27;;
6529;SDS011;3298;42.688;23.366;2023-02-28T00:50:51;17.67;;;12.37;;
6529;SDS011;3298;42.688;23.366;2023-02-28T00:53:19;18.83;;;12.33;;
6529;SDS011;3298;42.688;23.366;2023-02-28T00:55:47;19.53;;;12.37;;
6529;SDS011;3298;42.688;23.366;2023-02-28T00:58:14;18.87;;;12.43;;
6529;SDS011;3298;42.688;23.366;2023-02-28T01:00:40;15.97;;;12.20;;
6529;SDS011;3298;42.688;23.366;2023-02-28T01:03:07;15.67;;;12.53;;
6529;SDS011;3298;42.688;23.366;2023-02-28T01:05:34;18.70;;;12.47;;
6529;SDS011;3298;42.688;23.366;2023-02-28T01:08:00;16.43;;;11.57;;
6529;SDS011;3298;42.688;23.366;2023-02-28T01:10:29;19.13;;;12.57;;
6529;SDS011;3298;42.688;23.366;2023-02-28T01:12:56;13.30;;;11.07;;
6529;SDS011;3298;42.688;23.366;2023-02-28T01:15:23;19.10;;;12.97;;
6529;SDS011;3298;42.688;23.366;2023-02-28T01:17:50;15.87;;;11.50;;
6529;SDS011;3298;42.688;23.366;2023-02-28T01:20:17;13.50;;;10.93;;
6529;SDS011;3298;42.688;23.366;2023-02-28T01:22:44;16.70;;;11.13;;
6529;SDS011;3298;42.688;23.366;2023-02-28T01:25:11;16.10;;;12.07;;
6529;SDS011;3298;42.688;23.366;2023-02-28T01:27:39;19.87;;;11.53;;
6529;SDS011;3298;42.688;23.366;2023-02-28T01:30:07;16.47;;;12.60;;
6529;SDS011;3298;42.688;23.366;2023-02-28T01:32:35;21.33;;;12.67;;
6529;SDS011;3298;42.688;23.366;2023-02-28T01:35:02;16.57;;;11.73;;
6529;SDS011;3298;42.688;23.366;2023-02-28T01:37:29;13.70;;;11.57;;
6529;SDS011;3298;42.688;23.366;2023-02-28T01:39:55;18.57;;;12.83;;
6529;SDS011;3298;42.688;23.366;2023-02-28T01:42:22;17.27;;;11.77;;
6529;SDS011;3298;42.688;23.366;2023-02-28T01:45:01;17.17;;;11.50;;
6529;SDS011;3298;42.688;23.366;2023-02-28T01:47:33;14.43;;;11.17;;
6529;SDS011;3298;42.688;23.366;2023-02-28T01:50:04;15.23;;;11.67;;
6529;SDS011;3298;42.688;23.366;2023-02-28T01:52:33;18.03;;;12.07;;
6529;SDS011;3298;42.688;23.366;2023-02-28T01:55:01;17.83;;;12.10;;
6529;SDS011;3298;42.688;23.366;2023-02-28T01:57:32;14.50;;;11.90;;
6529;SDS011;3298;42.688;23.366;2023-02-28T02:00:06;20.53;;;13.00;;
6529;SDS011;3298;42.688;23.366;2023-02-28T02:02:35;17.30;;;12.57;;
6529;SDS011;3298;42.688;23.366;2023-02-28T02:05:05;24.70;;;13.07;;
6529;SDS011;3298;42.688;23.366;2023-02-28T02:07:34;20.30;;;13.80;;
6529;SDS011;3298;42.688;23.366;2023-02-28T02:10:04;22.67;;;15.20;;
6529;SDS011;3298;42.688;23.366;2023-02-28T02:15:38;25.23;;;14.77;;
6529;SDS011;3298;42.688;23.366;2023-02-28T02:18:13;22.33;;;15.23;;
6529;SDS011;3298;42.688;23.366;2023-02-28T02:29:55;24.10;;;14.73;;
6529;SDS011;3298;42.688;23.366;2023-02-28T02:32:54;26.23;;;15.37;;
6529;SDS011;3298;42.688;23.366;2023-02-28T02:35:34;26.83;;;14.33;;
6529;SDS011;3298;42.688;23.366;2023-02-28T02:38:08;20.80;;;14.67;;
6529;SDS011;3298;42.688;23.366;2023-02-28T02:40:42;23.43;;;14.40;;
6529;SDS011;3298;42.688;23.366;2023-02-28T02:43:13;24.57;;;15.87;;
6529;SDS011;3298;42.688;23.366;2023-02-28T02:45:44;23.97;;;14.27;;
6529;SDS011;3298;42.688;23.366;2023-02-28T02:48:15;26.63;;;14.80;;
6529;SDS011;3298;42.688;23.366;2023-02-28T02:50:50;25.57;;;15.63;;
6529;SDS011;3298;42.688;23.366;2023-02-28T02:53:21;26.33;;;16.17;;
6529;SDS011;3298;42.688;23.366;2023-02-28T02:55:54;28.27;;;15.53;;
6529;SDS011;3298;42.688;23.366;2023-02-28T02:58:24;25.03;;;15.97;;
6529;SDS011;3298;42.688;23.366;2023-02-28T03:00:55;22.23;;;15.03;;
6529;SDS011;3298;42.688;23.366;2023-02-28T03:03:26;26.40;;;15.93;;
6529;SDS011;3298;42.688;23.366;2023-02-28T03:05:56;28.27;;;16.37;;
6529;SDS011;3298;42.688;23.366;2023-02-28T03:08:24;27.87;;;16.20;;
6529;SDS011;3298;42.688;23.366;2023-02-28T03:10:54;24.80;;;15.50;;
6529;SDS011;3298;42.688;23.366;2023-02-28T03:19:17;23.70;;;15.70;;
6529;SDS011;3298;42.688;23.366;2023-02-28T03:21:59;27.70;;;16.70;;
6529;SDS011;3298;42.688;23.366;2023-02-28T03:24:39;26.40;;;15.67;;
6529;SDS011;3298;42.688;23.366;2023-02-28T03:27:11;29.07;;;16.57;;
6529;SDS011;3298;42.688;23.366;2023-02-28T03:29:43;35.10;;;17.43;;
6529;SDS011;3298;42.688;23.366;2023-02-28T03:32:14;29.57;;;17.63;;
6529;SDS011;3298;42.688;23.366;2023-02-28T03:34:47;29.10;;;16.63;;
6529;SDS011;3298;42.688;23.366;2023-02-28T03:37:22;31.67;;;17.20;;
6529;SDS011;3298;42.688;23.366;2023-02-28T03:39:52;27.87;;;16.73;;
6529;SDS011;3298;42.688;23.366;2023-02-28T03:42:23;37.17;;;18.27;;
6529;SDS011;3298;42.688;23.366;2023-02-28T03:44:54;31.60;;;17.07;;
6529;SDS011;3298;42.688;23.366;2023-02-28T03:47:25;33.17;;;18.57;;
6529;SDS011;3298;42.688;23.366;2023-02-28T03:49:56;33.93;;;17.63;;
6529;SDS011;3298;42.688;23.366;2023-02-28T03:52:28;29.03;;;17.50;;
6529;SDS011;3298;42.688;23.366;2023-02-28T03:54:59;29.40;;;16.60;;
6529;SDS011;3298;42.688;23.366;2023-02-28T03:57:32;34.57;;;18.37;;
6529;SDS011;3298;42.688;23.366;2023-02-28T04:00:04;39.63;;;18.73;;
6529;SDS011;3298;42.688;23.366;2023-02-28T04:02:34;44.40;;;19.37;;
6529;SDS011;3298;42.688;23.366;2023-02-28T04:05:01;37.30;;;19.17;;
6529;SDS011;3298;42.688;23.366;2023-02-28T04:07:30;38.53;;;20.83;;
6529;SDS011;3298;42.688;23.366;2023-02-28T04:09:57;38.47;;;20.17;;
6529;SDS011;3298;42.688;23.366;2023-02-28T04:12:24;38.97;;;19.90;;
6529;SDS011;3298;42.688;23.366;2023-02-28T04:14:51;32.80;;;19.17;;
6529;SDS011;3298;42.688;23.366;2023-02-28T04:17:18;40.40;;;20.57;;
6529;SDS011;3298;42.688;23.366;2023-02-28T04:19:45;26.30;;;15.30;;
6529;SDS011;3298;42.688;23.366;2023-02-28T04:22:11;30.27;;;15.77;;
6529;SDS011;3298;42.688;23.366;2023-02-28T04:24:40;33.03;;;17.70;;
6529;SDS011;3298;42.688;23.366;2023-02-28T04:27:08;34.67;;;18.80;;
6529;SDS011;3298;42.688;23.366;2023-02-28T04:29:35;29.23;;;17.30;;
6529;SDS011;3298;42.688;23.366;2023-02-28T04:32:02;30.83;;;16.80;;
6529;SDS011;3298;42.688;23.366;2023-02-28T04:34:30;35.00;;;17.80;;
6529;SDS011;3298;42.688;23.366;2023-02-28T04:36:57;38.60;;;20.37;;
6529;SDS011;3298;42.688;23.366;2023-02-28T04:39:25;38.77;;;19.27;;
6529;SDS011;3298;42.688;23.366;2023-02-28T04:41:53;41.13;;;19.37;;
6529;SDS011;3298;42.688;23.366;2023-02-28T04:44:20;46.17;;;20.07;;
6529;SDS011;3298;42.688;23.366;2023-02-28T04:46:47;41.57;;;18.87;;
6529;SDS011;3298;42.688;23.366;2023-02-28T04:49:15;42.63;;;20.73;;
6529;SDS011;3298;42.688;23.366;2023-02-28T04:51:42;40.63;;;21.00;;
6529;SDS011;3298;42.688;23.366;2023-02-28T04:54:08;45.77;;;22.07;;
6529;SDS011;3298;42.688;23.366;2023-02-28T04:56:37;45.37;;;21.50;;
6529;SDS011;3298;42.688;23.366;2023-02-28T04:59:05;53.03;;;22.30;;
6529;SDS011;3298;42.688;23.366;2023-02-28T05:01:32;44.87;;;21.70;;
6529;SDS011;3298;42.688;23.366;2023-02-28T05:04:01;60.57;;;22.70;;
6529;SDS011;3298;42.688;23.366;2023-02-28T05:06:31;50.57;;;22.90;;
6529;SDS011;3298;42.688;23.366;2023-02-28T05:08:59;52.30;;;24.07;;
6529;SDS011;3298;42.688;23.366;2023-02-28T05:11:26;52.00;;;25.23;;
6529;SDS011;3298;42.688;23.366;2023-02-28T05:13:58;61.23;;;26.30;;
6529;SDS011;3298;42.688;23.366;2023-02-28T05:16:27;60.77;;;25.73;;
6529;SDS011;3298;42.688;23.366;2023-02-28T05:18:53;47.50;;;26.30;;
6529;SDS011;3298;42.688;23.366;2023-02-28T05:21:23;49.43;;;24.07;;
6529;SDS011;3298;42.688;23.366;2023-02-28T05:23:52;53.93;;;23.97;;
6529;SDS011;3298;42.688;23.366;2023-02-28T05:26:19;53.00;;;24.17;;
6529;SDS011;3298;42.688;23.366;2023-02-28T05:28:46;51.60;;;24.10;;
6529;SDS011;3298;42.688;23.366;2023-02-28T05:31:13;41.70;;;20.40;;
6529;SDS011;3298;42.688;23.366;2023-02-28T05:33:41;44.07;;;20.40;;
6529;SDS011;3298;42.688;23.366;2023-02-28T05:36:08;41.57;;;20.63;;
6529;SDS011;3298;42.688;23.366;2023-02-28T05:38:35;35.47;;;19.60;;
6529;SDS011;3298;42.688;23.366;2023-02-28T05:41:04;46.83;;;21.30;;
6529;SDS011;3298;42.688;23.366;2023-02-28T05:43:32;53.00;;;22.23;;
6529;SDS011;3298;42.688;23.366;2023-02-28T05:45:59;44.03;;;21.50;;
6529;SDS011;3298;42.688;23.366;2023-02-28T05:48:25;46.80;;;20.07;;
6529;SDS011;3298;42.688;23.366;2023-02-28T05:50:53;52.30;;;22.60;;
6529;SDS011;3298;42.688;23.366;2023-02-28T05:53:20;41.83;;;20.57;;
6529;SDS011;3298;42.688;23.366;2023-02-28T05:55:47;54.00;;;22.17;;
6529;SDS011;3298;42.688;23.366;2023-02-28T05:58:14;42.77;;;20.33;;
6529;SDS011;3298;42.688;23.366;2023-02-28T06:00:40;44.53;;;21.90;;
6529;SDS011;3298;42.688;23.366;2023-02-28T06:03:07;39.63;;;20.40;;
6529;SDS011;3298;42.688;23.366;2023-02-28T06:05:34;46.53;;;22.13;;
6529;SDS011;3298;42.688;23.366;2023-02-28T06:08:02;51.40;;;22.13;;
6529;SDS011;3298;42.688;23.366;2023-02-28T06:10:30;44.37;;;21.57;;
6529;SDS011;3298;42.688;23.366;2023-02-28T06:12:59;52.03;;;24.73;;
6529;SDS011;3298;42.688;23.366;2023-02-28T06:15:27;59.50;;;26.40;;
6529;SDS011;3298;42.688;23.366;2023-02-28T06:17:55;57.37;;;26.60;;
6529;SDS011;3298;42.688;23.366;2023-02-28T06:20:22;59.60;;;27.63;;
6529;SDS011;3298;42.688;23.366;2023-02-28T06:22:50;59.80;;;26.40;;
6529;SDS011;3298;42.688;23.366;2023-02-28T06:25:18;77.07;;;29.53;;
6529;SDS011;3298;42.688;23.366;2023-02-28T06:27:45;73.50;;;29.20;;
6529;SDS011;3298;42.688;23.366;2023-02-28T06:30:13;76.07;;;31.63;;
6529;SDS011;3298;42.688;23.366;2023-02-28T06:32:40;70.23;;;32.17;;
6529;SDS011;3298;42.688;23.366;2023-02-28T06:35:07;57.40;;;28.70;;
6529;SDS011;3298;42.688;23.366;2023-02-28T06:37:34;58.53;;;28.37;;
6529;SDS011;3298;42.688;23.366;2023-02-28T06:40:01;53.47;;;27.30;;
6529;SDS011;3298;42.688;23.366;2023-02-28T06:42:30;52.90;;;24.93;;
6529;SDS011;3298;42.688;23.366;2023-02-28T06:44:57;32.73;;;20.97;;
6529;SDS011;3298;42.688;23.366;2023-02-28T06:47:24;35.70;;;21.20;;
6529;SDS011;3298;42.688;23.366;2023-02-28T06:49:51;36.00;;;22.27;;
6529;SDS011;3298;42.688;23.366;2023-02-28T06:52:18;29.73;;;18.83;;
6529;SDS011;3298;42.688;23.366;2023-02-28T06:54:45;24.63;;;17.03;;
6529;SDS011;3298;42.688;23.366;2023-02-28T06:57:12;26.00;;;17.57;;
6529;SDS011;3298;42.688;23.366;2023-02-28T06:59:40;30.33;;;18.40;;
6529;SDS011;3298;42.688;23.366;2023-02-28T07:02:07;30.23;;;20.07;;
6529;SDS011;3298;42.688;23.366;2023-02-28T07:04:34;35.43;;;21.07;;
6529;SDS011;3298;42.688;23.366;2023-02-28T07:07:01;43.63;;;23.60;;
6529;SDS011;3298;42.688;23.366;2023-02-28T07:09:28;46.73;;;23.37;;
6529;SDS011;3298;42.688;23.366;2023-02-28T07:11:55;47.77;;;25.50;;
6529;SDS011;3298;42.688;23.366;2023-02-28T07:14:21;52.67;;;25.07;;
6529;SDS011;3298;42.688;23.366;2023-02-28T07:16:50;55.00;;;26.70;;
6529;SDS011;3298;42.688;23.366;2023-02-28T07:19:16;51.70;;;25.93;;
6529;SDS011;3298;42.688;23.366;2023-02-28T07:21:43;53.93;;;24.53;;
6529;SDS011;3298;42.688;23.366;2023-02-28T07:24:10;48.00;;;25.47;;
6529;SDS011;3298;42.688;23.366;2023-02-28T07:26:37;44.67;;;24.40;;
6529;SDS011;3298;42.688;23.366;2023-02-28T07:29:03;42.20;;;23.77;;
6529;SDS011;3298;42.688;23.366;2023-02-28T07:31:30;45.40;;;24.63;;
6529;SDS011;3298;42.688;23.366;2023-02-28T07:33:58;47.13;;;26.27;;
6529;SDS011;3298;42.688;23.366;2023-02-28T07:36:25;45.40;;;24.77;;
6529;SDS011;3298;42.688;23.366;2023-02-28T07:38:52;49.57;;;25.93;;
6529;SDS011;3298;42.688;23.366;2023-02-28T07:41:20;49.83;;;27.17;;
6529;SDS011;3298;42.688;23.366;2023-02-28T07:43:49;40.77;;;25.47;;
6529;SDS011;3298;42.688;23.366;2023-02-28T07:46:19;41.50;;;24.83;;
6529;SDS011;3298;42.688;23.366;2023-02-28T07:48:46;34.90;;;22.03;;
6529;SDS011;3298;42.688;23.366;2023-02-28T07:51:14;36.63;;;20.93;;
6529;SDS011;3298;42.688;23.366;2023-02-28T07:53:41;24.03;;;18.47;;
6529;SDS011;3298;42.688;23.366;2023-02-28T07:56:07;32.13;;;20.13;;
6529;SDS011;3298;42.688;23.366;2023-02-28T07:58:35;31.33;;;20.77;;
6529;SDS011;3298;42.688;23.366;2023-02-28T08:01:06;29.97;;;20.13;;
6529;SDS011;3298;42.688;23.366;2023-02-28T08:03:33;25.97;;;19.13;;
6529;SDS011;3298;42.688;23.366;2023-02-28T08:06:00;26.00;;;18.83;;
6529;SDS011;3298;42.688;23.366;2023-02-28T08:08:29;27.33;;;18.50;;
6529;SDS011;3298;42.688;23.366;2023-02-28T08:10:57;27.13;;;19.23;;
6529;SDS011;3298;42.688;23.366;2023-02-28T08:13:26;26.00;;;17.97;;
6529;SDS011;3298;42.688;23.366;2023-02-28T08:15:53;27.20;;;18.70;;
6529;SDS011;3298;42.688;23.366;2023-02-28T08:18:20;24.87;;;18.10;;
6529;SDS011;3298;42.688;23.366;2023-02-28T08:20:48;23.27;;;17.33;;
6529;SDS011;3298;42.688;23.366;2023-02-28T08:23:15;25.67;;;18.27;;
6529;SDS011;3298;42.688;23.366;2023-02-28T08:25:43;26.93;;;17.90;;
6529;SDS011;3298;42.688;23.366;2023-02-28T08:28:10;32.53;;;18.93;;
6529;SDS011;3298;42.688;23.366;2023-02-28T08:30:37;25.60;;;18.90;;
6529;SDS011;3298;42.688;23.366;2023-02-28T08:33:06;27.47;;;20.27;;
6529;SDS011;3298;42.688;23.366;2023-02-28T08:35:32;28.00;;;19.43;;
6529;SDS011;3298;42.688;23.366;2023-02-28T08:38:02;35.63;;;23.27;;
6529;SDS011;3298;42.688;23.366;2023-02-28T08:40:28;35.57;;;22.10;;
6529;SDS011;3298;42.688;23.366;2023-02-28T08:42:57;38.47;;;20.70;;
6529;SDS011;3298;42.688;23.366;2023-02-28T08:45:24;37.93;;;23.30;;
6529;SDS011;3298;42.688;23.366;2023-02-28T08:47:51;31.20;;;19.10;;
6529;SDS011;3298;42.688;23.366;2023-02-28T08:50:20;26.60;;;15.57;;
6529;SDS011;3298;42.688;23.366;2023-02-28T08:52:47;24.00;;;13.93;;
6529;SDS011;3298;42.688;23.366;2023-02-28T08:55:14;31.63;;;16.43;;
6529;SDS011;3298;42.688;23.366;2023-02-28T08:57:40;28.83;;;15.07;;
6529;SDS011;3298;42.688;23.366;2023-02-28T09:00:09;26.13;;;15.80;;
6529;SDS011;3298;42.688;23.366;2023-02-28T09:02:38;30.87;;;15.93;;
6529;SDS011;3298;42.688;23.366;2023-02-28T09:05:06;26.73;;;14.30;;
6529;SDS011;3298;42.688;23.366;2023-02-28T09:07:34;30.03;;;13.10;;
6529;SDS011;3298;42.688;23.366;2023-02-28T09:10:01;27.50;;;13.60;;
6529;SDS011;3298;42.688;23.366;2023-02-28T09:12:27;20.53;;;13.60;;
6529;SDS011;3298;42.688;23.366;2023-02-28T09:14:59;18.20;;;12.40;;
6529;SDS011;3298;42.688;23.366;2023-02-28T09:17:27;23.23;;;13.20;;
6529;SDS011;3298;42.688;23.366;2023-02-28T09:19:54;16.53;;;11.93;;
6529;SDS011;3298;42.688;23.366;2023-02-28T09:22:20;25.17;;;12.63;;
6529;SDS011;3298;42.688;23.366;2023-02-28T09:24:47;24.70;;;13.27;;
6529;SDS011;3298;42.688;23.366;2023-02-28T09:27:14;24.37;;;14.33;;
6529;SDS011;3298;42.688;23.366;2023-02-28T09:29:41;37.50;;;16.47;;
6529;SDS011;3298;42.688;23.366;2023-02-28T09:32:07;21.57;;;14.07;;
6529;SDS011;3298;42.688;23.366;2023-02-28T09:34:35;21.23;;;11.07;;
6529;SDS011;3298;42.688;23.366;2023-02-28T09:37:03;17.50;;;11.07;;
6529;SDS011;3298;42.688;23.366;2023-02-28T09:39:30;21.17;;;11.30;;
6529;SDS011;3298;42.688;23.366;2023-02-28T09:41:57;23.03;;;12.13;;
6529;SDS011;3298;42.688;23.366;2023-02-28T09:44:26;17.60;;;10.13;;
6529;SDS011;3298;42.688;23.366;2023-02-28T09:46:57;18.83;;;10.97;;
6529;SDS011;3298;42.688;23.366;2023-02-28T09:49:29;22.63;;;10.10;;
6529;SDS011;3298;42.688;23.366;2023-02-28T09:52:03;23.77;;;11.60;;
6529;SDS011;3298;42.688;23.366;2023-02-28T09:54:34;23.40;;;12.27;;
6529;SDS011;3298;42.688;23.366;2023-02-28T09:57:05;25.63;;;13.40;;
6529;SDS011;3298;42.688;23.366;2023-02-28T09:59:39;18.87;;;10.50;;
6529;SDS011;3298;42.688;23.366;2023-02-28T10:02:21;28.77;;;11.93;;
6529;SDS011;3298;42.688;23.366;2023-02-28T10:05:08;23.27;;;11.60;;
6529;SDS011;3298;42.688;23.366;2023-02-28T10:07:46;16.37;;;10.93;;
6529;SDS011;3298;42.688;23.366;2023-02-28T10:10:24;15.83;;;10.63;;
6529;SDS011;3298;42.688;23.366;2023-02-28T10:12:57;19.77;;;10.60;;
6529;SDS011;3298;42.688;23.366;2023-02-28T10:15:29;24.63;;;10.87;;
6529;SDS011;3298;42.688;23.366;2023-02-28T10:17:59;21.67;;;11.47;;
6529;SDS011;3298;42.688;23.366;2023-02-28T10:20:28;18.20;;;8.00;;
6529;SDS011;3298;42.688;23.366;2023-02-28T10:23:02;20.83;;;10.43;;
6529;SDS011;3298;42.688;23.366;2023-02-28T10:25:36;19.77;;;9.90;;
6529;SDS011;3298;42.688;23.366;2023-02-28T10:28:11;19.10;;;10.33;;
6529;SDS011;3298;42.688;23.366;2023-02-28T10:30:41;15.70;;;8.07;;
6529;SDS011;3298;42.688;23.366;2023-02-28T10:33:15;25.63;;;8.87;;
6529;SDS011;3298;42.688;23.366;2023-02-28T10:35:46;18.27;;;9.80;;
6529;SDS011;3298;42.688;23.366;2023-02-28T10:38:16;16.27;;;8.80;;
6529;SDS011;3298;42.688;23.366;2023-02-28T10:40:44;11.03;;;8.07;;
6529;SDS011;3298;42.688;23.366;2023-02-28T10:43:18;23.07;;;9.23;;
6529;SDS011;3298;42.688;23.366;2023-02-28T10:45:53;15.30;;;8.37;;
6529;SDS011;3298;42.688;23.366;2023-02-28T10:48:26;12.00;;;7.47;;
6529;SDS011;3298;42.688;23.366;2023-02-28T10:50:56;24.73;;;9.00;;
6529;SDS011;3298;42.688;23.366;2023-02-28T10:53:33;21.97;;;9.53;;
6529;SDS011;3298;42.688;23.366;2023-02-28T10:56:14;19.03;;;10.43;;
6529;SDS011;3298;42.688;23.366;2023-02-28T10:58:51;15.90;;;10.23;;
6529;SDS011;3298;42.688;23.366;2023-02-28T11:01:21;18.53;;;8.63;;
6529;SDS011;3298;42.688;23.366;2023-02-28T11:03:50;14.53;;;9.73;;
6529;SDS011;3298;42.688;23.366;2023-02-28T11:06:19;15.47;;;10.67;;
6529;SDS011;3298;42.688;23.366;2023-02-28T11:08:50;15.93;;;10.80;;
6529;SDS011;3298;42.688;23.366;2023-02-28T11:11:20;17.23;;;9.77;;
6529;SDS011;3298;42.688;23.366;2023-02-28T11:13:52;19.93;;;8.60;;
6529;SDS011;3298;42.688;23.366;2023-02-28T11:16:21;12.73;;;8.20;;
6529;SDS011;3298;42.688;23.366;2023-02-28T11:18:50;16.33;;;8.97;;
6529;SDS011;3298;42.688;23.366;2023-02-28T11:21:22;10.47;;;6.87;;
6529;SDS011;3298;42.688;23.366;2023-02-28T11:23:56;17.07;;;10.40;;
6529;SDS011;3298;42.688;23.366;2023-02-28T11:26:37;22.63;;;9.80;;
6529;SDS011;3298;42.688;23.366;2023-02-28T11:29:10;21.10;;;9.57;;
6529;SDS011;3298;42.688;23.366;2023-02-28T11:31:54;13.73;;;9.00;;
6529;SDS011;3298;42.688;23.366;2023-02-28T11:34:28;24.20;;;10.43;;
6529;SDS011;3298;42.688;23.366;2023-02-28T11:36:56;10.77;;;8.60;;
6529;SDS011;3298;42.688;23.366;2023-02-28T11:39:26;13.90;;;8.83;;
6529;SDS011;3298;42.688;23.366;2023-02-28T11:45:11;15.17;;;8.00;;
6529;SDS011;3298;42.688;23.366;2023-02-28T11:47:47;20.00;;;9.20;;
6529;SDS011;3298;42.688;23.366;2023-02-28T11:50:33;18.70;;;8.73;;
6529;SDS011;3298;42.688;23.366;2023-02-28T11:53:10;20.50;;;9.07;;
6529;SDS011;3298;42.688;23.366;2023-02-28T11:55:47;15.83;;;9.67;;
6529;SDS011;3298;42.688;23.366;2023-02-28T11:58:23;22.47;;;9.77;;
6529;SDS011;3298;42.688;23.366;2023-02-28T12:01:09;21.07;;;9.67;;
6529;SDS011;3298;42.688;23.366;2023-02-28T12:03:45;20.53;;;9.60;;
6529;SDS011;3298;42.688;23.366;2023-02-28T12:06:25;13.93;;;7.60;;
6529;SDS011;3298;42.688;23.366;2023-02-28T12:09:02;17.93;;;10.23;;
6529;SDS011;3298;42.688;23.366;2023-02-28T12:11:43;17.23;;;9.43;;
6529;SDS011;3298;42.688;23.366;2023-02-28T12:14:32;11.40;;;8.10;;
6529;SDS011;3298;42.688;23.366;2023-02-28T12:17:22;14.47;;;8.60;;
6529;SDS011;3298;42.688;23.366;2023-02-28T12:20:02;15.17;;;7.97;;
6529;SDS011;3298;42.688;23.366;2023-02-28T12:22:40;14.40;;;9.57;;
6529;SDS011;3298;42.688;23.366;2023-02-28T12:25:22;12.63;;;7.63;;
6529;SDS011;3298;42.688;23.366;2023-02-28T12:28:07;16.33;;;9.23;;
6529;SDS011;3298;42.688;23.366;2023-02-28T12:30:35;14.33;;;9.03;;
6529;SDS011;3298;42.688;23.366;2023-02-28T12:33:07;20.73;;;9.73;;
6529;SDS011;3298;42.688;23.366;2023-02-28T12:35:47;14.37;;;8.87;;
6529;SDS011;3298;42.688;23.366;2023-02-28T12:38:18;11.70;;;5.27;;
6529;SDS011;3298;42.688;23.366;2023-02-28T12:40:49;17.77;;;9.37;;
6529;SDS011;3298;42.688;23.366;2023-02-28T12:43:22;12.67;;;6.50;;
6529;SDS011;3298;42.688;23.366;2023-02-28T12:45:55;18.17;;;6.33;;
6529;SDS011;3298;42.688;23.366;2023-02-28T12:48:26;19.10;;;7.87;;
6529;SDS011;3298;42.688;23.366;2023-02-28T12:50:57;23.73;;;8.13;;
6529;SDS011;3298;42.688;23.366;2023-02-28T12:53:26;10.23;;;6.70;;
6529;SDS011;3298;42.688;23.366;2023-02-28T12:56:07;24.53;;;9.13;;
6529;SDS011;3298;42.688;23.366;2023-02-28T12:58:41;15.70;;;9.20;;
6529;SDS011;3298;42.688;23.366;2023-02-28T13:01:15;13.50;;;8.20;;
6529;SDS011;3298;42.688;23.366;2023-02-28T13:04:24;12.73;;;7.80;;
6529;SDS011;3298;42.688;23.366;2023-02-28T13:07:08;21.57;;;9.10;;
6529;SDS011;3298;42.688;23.366;2023-02-28T13:09:53;19.10;;;10.47;;
6529;SDS011;3298;42.688;23.366;2023-02-28T13:12:22;19.17;;;8.20;;
6529;SDS011;3298;42.688;23.366;2023-02-28T13:14:51;16.27;;;8.47;;
6529;SDS011;3298;42.688;23.366;2023-02-28T13:17:31;16.30;;;8.80;;
6529;SDS011;3298;42.688;23.366;2023-02-28T13:19:59;15.07;;;9.53;;
6529;SDS011;3298;42.688;23.366;2023-02-28T13:22:37;19.50;;;8.67;;
6529;SDS011;3298;42.688;23.366;2023-02-28T13:31:19;15.83;;;9.23;;
6529;SDS011;3298;42.688;23.366;2023-02-28T13:34:05;15.40;;;10.67;;
6529;SDS011;3298;42.688;23.366;2023-02-28T13:36:39;15.60;;;8.73;;
6529;SDS011;3298;42.688;23.366;2023-02-28T13:47:53;19.33;;;9.10;;
6529;SDS011;3298;42.688;23.366;2023-02-28T13:50:22;21.97;;;9.83;;
6529;SDS011;3298;42.688;23.366;2023-02-28T13:52:57;23.13;;;8.83;;
6529;SDS011;3298;42.688;23.366;2023-02-28T13:55:42;16.60;;;9.77;;
6529;SDS011;3298;42.688;23.366;2023-02-28T13:58:21;19.57;;;9.50;;
6529;SDS011;3298;42.688;23.366;2023-02-28T14:04:14;17.27;;;8.17;;
6529;SDS011;3298;42.688;23.366;2023-02-28T14:07:02;19.77;;;9.13;;
6529;SDS011;3298;42.688;23.366;2023-02-28T14:09:30;20.17;;;8.50;;
6529;SDS011;3298;42.688;23.366;2023-02-28T14:15:00;18.60;;;8.50;;
6529;SDS011;3298;42.688;23.366;2023-02-28T14:17:27;16.43;;;8.07;;
6529;SDS011;3298;42.688;23.366;2023-02-28T14:19:56;20.97;;;8.90;;
6529;SDS011;3298;42.688;23.366;2023-02-28T14:22:38;15.30;;;8.80;;
6529;SDS011;3298;42.688;23.366;2023-02-28T14:25:18;17.00;;;8.83;;
6529;SDS011;3298;42.688;23.366;2023-02-28T14:27:58;13.47;;;9.50;;
6529;SDS011;3298;42.688;23.366;2023-02-28T14:30:40;16.13;;;8.77;;
6529;SDS011;3298;42.688;23.366;2023-02-28T14:33:22;18.43;;;9.63;;
6529;SDS011;3298;42.688;23.366;2023-02-28T14:36:09;15.53;;;8.30;;
6529;SDS011;3298;42.688;23.366;2023-02-28T14:38:41;25.23;;;9.90;;
6529;SDS011;3298;42.688;23.366;2023-02-28T14:41:15;20.10;;;8.23;;
6529;SDS011;3298;42.688;23.366;2023-02-28T14:43:49;18.77;;;9.10;;
6529;SDS011;3298;42.688;23.366;2023-02-28T14:46:17;24.37;;;9.13;;
6529;SDS011;3298;42.688;23.366;2023-02-28T14:48:45;21.47;;;9.47;;
6529;SDS011;3298;42.688;23.366;2023-02-28T14:51:17;35.90;;;11.80;;
6529;SDS011;3298;42.688;23.366;2023-02-28T14:53:47;16.60;;;8.90;;
6529;SDS011;3298;42.688;23.366;2023-02-28T14:56:19;23.97;;;8.37;;
6529;SDS011;3298;42.688;23.366;2023-02-28T14:58:51;22.73;;;9.23;;
6529;SDS011;3298;42.688;23.366;2023-02-28T15:01:19;18.03;;;8.20;;
6529;SDS011;3298;42.688;23.366;2023-02-28T15:03:47;13.33;;;8.80;;
6529;SDS011;3298;42.688;23.366;2023-02-28T15:06:16;12.40;;;8.03;;
6529;SDS011;3298;42.688;23.366;2023-02-28T15:08:43;10.73;;;7.80;;
6529;SDS011;3298;42.688;23.366;2023-02-28T15:11:12;17.23;;;7.53;;
6529;SDS011;3298;42.688;23.366;2023-02-28T15:13:41;14.53;;;6.90;;
6529;SDS011;3298;42.688;23.366;2023-02-28T15:16:11;14.60;;;8.70;;
6529;SDS011;3298;42.688;23.366;2023-02-28T15:18:44;17.00;;;10.30;;
6529;SDS011;3298;42.688;23.366;2023-02-28T15:21:17;19.67;;;8.50;;
6529;SDS011;3298;42.688;23.366;2023-02-28T15:23:48;10.77;;;7.03;;
6529;SDS011;3298;42.688;23.366;2023-02-28T15:26:19;17.03;;;9.63;;
6529;SDS011;3298;42.688;23.366;2023-02-28T15:28:51;12.70;;;8.20;;
6529;SDS011;3298;42.688;23.366;2023-02-28T15:31:25;10.00;;;8.97;;
6529;SDS011;3298;42.688;23.366;2023-02-28T15:33:55;15.93;;;7.10;;
6529;SDS011;3298;42.688;23.366;2023-02-28T15:36:26;9.70;;;8.50;;
6529;SDS011;3298;42.688;23.366;2023-02-28T15:38:56;13.10;;;8.67;;
6529;SDS011;3298;42.688;23.366;2023-02-28T15:41:24;8.00;;;7.20;;